sensor_id;sensor_type;location;lat;lon;timestamp;pressure;altitude;pressure_sealevel;temperature;humidity
8581;BME280;4328;48.622;9.230;2022-08-25T00:01:50;98085.16;;;20.61;70.69
8581;BME280;4328;48.622;9.230;2022-08-25T00:04:19;98092.56;;;20.61;70.55
8581;BME280;4328;48.622;9.230;2022-08-25T00:06:47;98095.00;;;20.57;70.66
8581;BME280;4328;48.622;9.230;2022-08-25T00:09:17;98088.41;;;20.58;70.65
8581;BME280;4328;48.622;9.230;2022-08-25T00:11:46;98097.16;;;20.55;70.67
8581;BME280;4328;48.622;9.230;2022-08-25T00:14:16;98080.81;;;20.48;70.44
8581;BME280;4328;48.622;9.230;2022-08-25T00:16:43;98102.03;;;20.48;70.69
8581;BME280;4328;48.622;9.230;2022-08-25T00:19:13;98098.09;;;20.44;70.82
8581;BME280;4328;48.622;9.230;2022-08-25T00:21:42;98099.69;;;20.40;71.00
8581;BME280;4328;48.622;9.230;2022-08-25T00:24:11;98099.81;;;20.33;70.91
8581;BME280;4328;48.622;9.230;2022-08-25T00:26:39;98094.50;;;20.27;71.17
8581;BME280;4328;48.622;9.230;2022-08-25T00:29:07;98094.16;;;20.23;71.07
8581;BME280;4328;48.622;9.230;2022-08-25T00:31:34;98101.22;;;20.19;71.24
8581;BME280;4328;48.622;9.230;2022-08-25T00:34:02;98092.91;;;20.14;71.25
8581;BME280;4328;48.622;9.230;2022-08-25T00:36:32;98096.38;;;20.09;71.70
8581;BME280;4328;48.622;9.230;2022-08-25T00:39:00;98101.41;;;20.12;71.61
8581;BME280;4328;48.622;9.230;2022-08-25T00:41:27;98096.72;;;20.13;71.49
8581;BME280;4328;48.622;9.230;2022-08-25T00:43:56;98093.72;;;20.14;71.46
8581;BME280;4328;48.622;9.230;2022-08-25T00:46:26;98089.56;;;20.12;71.31
8581;BME280;4328;48.622;9.230;2022-08-25T00:48:57;98082.78;;;20.03;71.55
8581;BME280;4328;48.622;9.230;2022-08-25T00:51:31;98093.47;;;19.99;71.71
8581;BME280;4328;48.622;9.230;2022-08-25T00:54:01;98093.94;;;19.96;71.81
8581;BME280;4328;48.622;9.230;2022-08-25T00:56:28;98086.22;;;19.93;71.76
8581;BME280;4328;48.622;9.230;2022-08-25T00:58:56;98082.44;;;19.99;71.90
8581;BME280;4328;48.622;9.230;2022-08-25T01:01:23;98079.69;;;19.99;71.98
8581;BME280;4328;48.622;9.230;2022-08-25T01:03:50;98084.38;;;19.99;71.83
8581;BME280;4328;48.622;9.230;2022-08-25T01:06:17;98081.97;;;20.02;71.73
8581;BME280;4328;48.622;9.230;2022-08-25T01:08:44;98080.03;;;20.03;71.62
8581;BME280;4328;48.622;9.230;2022-08-25T01:11:13;98078.13;;;20.03;71.37
8581;BME280;4328;48.622;9.230;2022-08-25T01:13:41;98077.59;;;20.06;71.41
8581;BME280;4328;48.622;9.230;2022-08-25T01:16:12;98072.03;;;20.01;71.34
8581;BME280;4328;48.622;9.230;2022-08-25T01:18:44;98073.59;;;19.97;71.57
8581;BME280;4328;48.622;9.230;2022-08-25T01:21:12;98073.53;;;19.92;71.37
8581;BME280;4328;48.622;9.230;2022-08-25T01:23:40;98061.50;;;19.81;71.52
8581;BME280;4328;48.622;9.230;2022-08-25T01:26:10;98069.34;;;19.90;71.55
8581;BME280;4328;48.622;9.230;2022-08-25T01:28:38;98072.94;;;19.90;71.70
8581;BME280;4328;48.622;9.230;2022-08-25T01:31:25;98070.31;;;19.83;71.36
8581;BME280;4328;48.622;9.230;2022-08-25T01:33:52;98079.34;;;19.79;71.56
8581;BME280;4328;48.622;9.230;2022-08-25T01:36:21;98079.94;;;19.81;71.80
8581;BME280;4328;48.622;9.230;2022-08-25T01:38:49;98077.19;;;19.81;71.56
8581;BME280;4328;48.622;9.230;2022-08-25T01:41:21;98056.06;;;19.70;71.35
8581;BME280;4328;48.622;9.230;2022-08-25T01:43:51;98077.91;;;19.76;71.43
8581;BME280;4328;48.622;9.230;2022-08-25T01:46:18;98072.06;;;19.73;71.53
8581;BME280;4328;48.622;9.230;2022-08-25T01:48:44;98076.72;;;19.72;71.53
8581;BME280;4328;48.622;9.230;2022-08-25T01:51:13;98060.16;;;19.67;71.50
8581;BME280;4328;48.622;9.230;2022-08-25T01:53:42;98068.72;;;19.71;71.54
8581;BME280;4328;48.622;9.230;2022-08-25T01:56:10;98067.81;;;19.65;71.66
8581;BME280;4328;48.622;9.230;2022-08-25T01:58:40;98063.56;;;19.58;71.56
8581;BME280;4328;48.622;9.230;2022-08-25T02:01:09;98071.88;;;19.63;71.69
8581;BME280;4328;48.622;9.230;2022-08-25T02:03:39;98063.56;;;19.58;71.75
8581;BME280;4328;48.622;9.230;2022-08-25T02:06:07;98069.06;;;19.58;71.76
8581;BME280;4328;48.622;9.230;2022-08-25T02:08:35;98081.22;;;19.62;71.77
8581;BME280;4328;48.622;9.230;2022-08-25T02:11:04;98073.56;;;19.64;71.65
8581;BME280;4328;48.622;9.230;2022-08-25T02:13:31;98078.63;;;19.55;71.85
8581;BME280;4328;48.622;9.230;2022-08-25T02:15:59;98075.63;;;19.57;71.64
8581;BME280;4328;48.622;9.230;2022-08-25T02:18:27;98078.88;;;19.54;71.55
8581;BME280;4328;48.622;9.230;2022-08-25T02:20:53;98082.22;;;19.56;71.93
8581;BME280;4328;48.622;9.230;2022-08-25T02:23:20;98075.63;;;19.57;71.57
8581;BME280;4328;48.622;9.230;2022-08-25T02:25:47;98072.38;;;19.60;71.61
8581;BME280;4328;48.622;9.230;2022-08-25T02:28:15;98078.97;;;19.59;71.69
8581;BME280;4328;48.622;9.230;2022-08-25T02:30:42;98075.63;;;19.57;71.36
8581;BME280;4328;48.622;9.230;2022-08-25T02:33:09;98073.00;;;19.50;71.55
8581;BME280;4328;48.622;9.230;2022-08-25T02:35:37;98046.66;;;19.26;71.47
8581;BME280;4328;48.622;9.230;2022-08-25T02:38:05;98070.63;;;19.54;71.41
8581;BME280;4328;48.622;9.230;2022-08-25T02:40:32;98072.19;;;19.50;71.84
8581;BME280;4328;48.622;9.230;2022-08-25T02:42:58;98072.66;;;19.46;71.78
8581;BME280;4328;48.622;9.230;2022-08-25T02:45:26;98069.78;;;19.53;71.83
8581;BME280;4328;48.622;9.230;2022-08-25T02:47:53;98075.53;;;19.52;71.75
8581;BME280;4328;48.622;9.230;2022-08-25T02:50:20;98071.94;;;19.51;71.64
8581;BME280;4328;48.622;9.230;2022-08-25T02:52:46;98071.09;;;19.51;71.62
8581;BME280;4328;48.622;9.230;2022-08-25T02:55:16;98076.84;;;19.49;71.74
8581;BME280;4328;48.622;9.230;2022-08-25T02:57:42;98080.31;;;19.44;71.62
8581;BME280;4328;48.622;9.230;2022-08-25T03:00:11;98078.16;;;19.46;71.63
8581;BME280;4328;48.622;9.230;2022-08-25T03:02:40;98075.28;;;19.41;71.52
8581;BME280;4328;48.622;9.230;2022-08-25T03:05:08;98075.78;;;19.38;71.70
8581;BME280;4328;48.622;9.230;2022-08-25T03:07:35;98070.75;;;19.35;71.81
8581;BME280;4328;48.622;9.230;2022-08-25T03:10:05;98065.84;;;19.37;71.73
8581;BME280;4328;48.622;9.230;2022-08-25T03:12:32;98063.50;;;19.29;71.71
8581;BME280;4328;48.622;9.230;2022-08-25T03:14:59;98077.59;;;19.33;71.93
8581;BME280;4328;48.622;9.230;2022-08-25T03:17:26;98071.75;;;19.29;72.05
8581;BME280;4328;48.622;9.230;2022-08-25T03:19:54;98069.50;;;19.26;71.88
8581;BME280;4328;48.622;9.230;2022-08-25T03:22:21;98066.16;;;19.24;71.88
8581;BME280;4328;48.622;9.230;2022-08-25T03:24:48;98069.28;;;19.16;71.74
8581;BME280;4328;48.622;9.230;2022-08-25T03:27:14;98069.53;;;19.15;72.26
8581;BME280;4328;48.622;9.230;2022-08-25T03:29:40;98068.81;;;19.19;72.03
8581;BME280;4328;48.622;9.230;2022-08-25T03:32:07;98074.38;;;19.24;72.23
8581;BME280;4328;48.622;9.230;2022-08-25T03:34:34;98066.66;;;19.21;71.97
8581;BME280;4328;48.622;9.230;2022-08-25T03:37:02;98072.75;;;19.23;71.73
8581;BME280;4328;48.622;9.230;2022-08-25T03:39:29;98077.88;;;19.20;71.83
8581;BME280;4328;48.622;9.230;2022-08-25T03:41:56;98072.50;;;19.13;71.67
8581;BME280;4328;48.622;9.230;2022-08-25T03:44:23;98062.38;;;19.02;71.33
8581;BME280;4328;48.622;9.230;2022-08-25T03:46:51;98068.41;;;18.99;72.30
8581;BME280;4328;48.622;9.230;2022-08-25T03:49:20;98046.91;;;18.84;72.23
8581;BME280;4328;48.622;9.230;2022-08-25T03:51:49;98036.31;;;18.76;72.17
8581;BME280;4328;48.622;9.230;2022-08-25T03:54:20;98056.69;;;18.92;72.14
8581;BME280;4328;48.622;9.230;2022-08-25T03:56:47;98056.91;;;18.90;72.49
8581;BME280;4328;48.622;9.230;2022-08-25T03:59:14;98057.16;;;18.89;71.99
8581;BME280;4328;48.622;9.230;2022-08-25T04:01:42;98046.31;;;18.82;72.10
8581;BME280;4328;48.622;9.230;2022-08-25T04:04:11;98054.91;;;18.86;72.49
8581;BME280;4328;48.622;9.230;2022-08-25T04:06:39;98053.13;;;18.80;72.25
8581;BME280;4328;48.622;9.230;2022-08-25T04:09:06;98048.94;;;18.77;72.54
8581;BME280;4328;48.622;9.230;2022-08-25T04:11:35;98053.59;;;18.76;72.71
8581;BME280;4328;48.622;9.230;2022-08-25T04:14:02;98056.63;;;18.75;72.23
8581;BME280;4328;48.622;9.230;2022-08-25T04:16:32;98050.28;;;18.74;72.39
8581;BME280;4328;48.622;9.230;2022-08-25T04:19:02;98053.03;;;18.74;72.28
8581;BME280;4328;48.622;9.230;2022-08-25T04:21:30;98058.84;;;18.78;72.26
8581;BME280;4328;48.622;9.230;2022-08-25T04:23:57;98065.69;;;18.75;72.05
8581;BME280;4328;48.622;9.230;2022-08-25T04:26:26;98059.38;;;18.75;72.05
8581;BME280;4328;48.622;9.230;2022-08-25T04:28:56;98066.16;;;18.72;71.99
8581;BME280;4328;48.622;9.230;2022-08-25T04:31:25;98064.50;;;18.71;72.29
8581;BME280;4328;48.622;9.230;2022-08-25T04:33:52;98059.94;;;18.77;71.85
8581;BME280;4328;48.622;9.230;2022-08-25T04:36:19;98056.66;;;19.03;70.44
8581;BME280;4328;48.622;9.230;2022-08-25T04:38:47;98043.00;;;18.68;71.28
8581;BME280;4328;48.622;9.230;2022-08-25T04:41:16;98063.28;;;18.79;71.67
8581;BME280;4328;48.622;9.230;2022-08-25T04:43:44;98062.59;;;18.72;71.87
8581;BME280;4328;48.622;9.230;2022-08-25T04:46:14;98065.44;;;18.65;71.72
8581;BME280;4328;48.622;9.230;2022-08-25T04:48:42;98063.78;;;18.64;72.04
8581;BME280;4328;48.622;9.230;2022-08-25T04:51:12;98065.72;;;18.64;72.01
8581;BME280;4328;48.622;9.230;2022-08-25T04:53:39;98063.53;;;18.66;72.21
8581;BME280;4328;48.622;9.230;2022-08-25T04:56:09;98071.28;;;18.69;72.06
8581;BME280;4328;48.622;9.230;2022-08-25T04:58:36;98070.94;;;18.65;71.96
8581;BME280;4328;48.622;9.230;2022-08-25T05:01:04;98078.69;;;18.68;72.08
8581;BME280;4328;48.622;9.230;2022-08-25T05:03:32;98080.97;;;18.71;72.09
8581;BME280;4328;48.622;9.230;2022-08-25T05:05:59;98075.47;;;18.83;71.75
8581;BME280;4328;48.622;9.230;2022-08-25T05:08:26;98075.34;;;18.78;71.83
8581;BME280;4328;48.622;9.230;2022-08-25T05:10:53;98080.84;;;18.78;71.95
8581;BME280;4328;48.622;9.230;2022-08-25T05:13:21;98079.53;;;18.81;71.73
8581;BME280;4328;48.622;9.230;2022-08-25T05:15:51;98069.00;;;18.89;71.73
8581;BME280;4328;48.622;9.230;2022-08-25T05:18:20;98069.09;;;18.94;71.61
8581;BME280;4328;48.622;9.230;2022-08-25T05:20:49;98064.94;;;18.92;71.61
8581;BME280;4328;48.622;9.230;2022-08-25T05:23:18;98058.47;;;18.98;71.26
8581;BME280;4328;48.622;9.230;2022-08-25T05:25:45;98059.44;;;18.92;71.49
8581;BME280;4328;48.622;9.230;2022-08-25T05:28:11;98056.56;;;18.98;71.27
8581;BME280;4328;48.622;9.230;2022-08-25T05:30:39;98063.13;;;18.97;71.53
8581;BME280;4328;48.622;9.230;2022-08-25T05:33:07;98065.72;;;19.04;71.47
8581;BME280;4328;48.622;9.230;2022-08-25T05:35:34;98059.84;;;19.12;71.44
8581;BME280;4328;48.622;9.230;2022-08-25T05:38:03;98060.34;;;19.37;70.31
8581;BME280;4328;48.622;9.230;2022-08-25T05:40:30;98065.59;;;19.22;70.94
8581;BME280;4328;48.622;9.230;2022-08-25T05:42:57;98059.72;;;19.19;71.24
8581;BME280;4328;48.622;9.230;2022-08-25T05:45:24;98054.66;;;19.27;71.05
8581;BME280;4328;48.622;9.230;2022-08-25T05:47:51;98050.25;;;19.26;71.21
8581;BME280;4328;48.622;9.230;2022-08-25T05:50:17;98053.66;;;19.45;70.99
8581;BME280;4328;48.622;9.230;2022-08-25T05:52:44;98044.47;;;19.39;71.27
8581;BME280;4328;48.622;9.230;2022-08-25T05:55:12;98045.16;;;19.46;71.27
8581;BME280;4328;48.622;9.230;2022-08-25T05:57:39;98039.19;;;19.50;71.33
8581;BME280;4328;48.622;9.230;2022-08-25T06:00:08;98043.28;;;19.64;71.01
8581;BME280;4328;48.622;9.230;2022-08-25T06:02:36;98034.06;;;19.70;70.91
8581;BME280;4328;48.622;9.230;2022-08-25T06:05:10;98047.75;;;19.98;69.47
8581;BME280;4328;48.622;9.230;2022-08-25T06:07:38;98043.16;;;19.87;70.43
8581;BME280;4328;48.622;9.230;2022-08-25T06:10:07;98039.41;;;20.27;69.37
8581;BME280;4328;48.622;9.230;2022-08-25T06:12:37;98038.59;;;20.43;68.98
8581;BME280;4328;48.622;9.230;2022-08-25T06:15:06;98032.72;;;20.56;69.00
8581;BME280;4328;48.622;9.230;2022-08-25T06:17:33;98037.03;;;20.69;68.90
8581;BME280;4328;48.622;9.230;2022-08-25T06:20:06;98039.88;;;20.74;68.70
8581;BME280;4328;48.622;9.230;2022-08-25T06:22:34;98040.84;;;20.84;68.49
8581;BME280;4328;48.622;9.230;2022-08-25T06:25:02;98033.28;;;20.97;68.47
8581;BME280;4328;48.622;9.230;2022-08-25T06:27:29;98042.31;;;21.14;67.76
8581;BME280;4328;48.622;9.230;2022-08-25T06:29:57;98038.69;;;21.30;67.65
8581;BME280;4328;48.622;9.230;2022-08-25T06:32:24;98042.72;;;21.44;67.16
8581;BME280;4328;48.622;9.230;2022-08-25T06:34:50;98037.63;;;21.58;67.14
8581;BME280;4328;48.622;9.230;2022-08-25T06:37:17;98032.22;;;21.73;66.63
8581;BME280;4328;48.622;9.230;2022-08-25T06:39:44;98029.78;;;21.77;66.89
8581;BME280;4328;48.622;9.230;2022-08-25T06:42:11;98034.38;;;21.93;66.60
8581;BME280;4328;48.622;9.230;2022-08-25T06:44:38;98040.41;;;22.17;66.11
8581;BME280;4328;48.622;9.230;2022-08-25T06:47:06;98033.47;;;22.51;64.86
8581;BME280;4328;48.622;9.230;2022-08-25T06:49:33;98026.19;;;22.77;65.15
8581;BME280;4328;48.622;9.230;2022-08-25T06:52:00;98031.66;;;23.29;63.47
8581;BME280;4328;48.622;9.230;2022-08-25T06:54:27;98025.75;;;24.03;61.77
8581;BME280;4328;48.622;9.230;2022-08-25T06:56:54;98020.75;;;24.61;60.53
8581;BME280;4328;48.622;9.230;2022-08-25T06:59:21;98015.81;;;25.28;59.07
8581;BME280;4328;48.622;9.230;2022-08-25T07:01:47;98001.75;;;26.41;56.39
8581;BME280;4328;48.622;9.230;2022-08-25T07:04:16;98005.00;;;28.84;51.79
8581;BME280;4328;48.622;9.230;2022-08-25T07:06:42;97988.22;;;32.25;45.86
8581;BME280;4328;48.622;9.230;2022-08-25T07:09:10;97996.09;;;35.00;41.18
8581;BME280;4328;48.622;9.230;2022-08-25T07:11:37;98006.59;;;36.81;37.70
8581;BME280;4328;48.622;9.230;2022-08-25T07:14:06;97992.66;;;37.51;36.27
8581;BME280;4328;48.622;9.230;2022-08-25T07:16:34;98001.66;;;36.50;36.94
8581;BME280;4328;48.622;9.230;2022-08-25T07:19:01;98006.44;;;34.30;39.84
8581;BME280;4328;48.622;9.230;2022-08-25T07:21:30;97998.25;;;32.52;42.79
8581;BME280;4328;48.622;9.230;2022-08-25T07:23:58;97996.63;;;31.17;45.32
8581;BME280;4328;48.622;9.230;2022-08-25T07:26:27;97994.19;;;30.09;47.81
8581;BME280;4328;48.622;9.230;2022-08-25T07:28:54;97992.88;;;29.29;49.63
8581;BME280;4328;48.622;9.230;2022-08-25T07:31:23;97975.91;;;28.71;50.76
8581;BME280;4328;48.622;9.230;2022-08-25T07:33:51;97985.41;;;28.43;51.16
8581;BME280;4328;48.622;9.230;2022-08-25T07:36:36;97989.13;;;28.00;52.94
8581;BME280;4328;48.622;9.230;2022-08-25T07:39:03;97975.19;;;28.00;52.79
8581;BME280;4328;48.622;9.230;2022-08-25T07:41:30;97978.47;;;27.89;52.97
8581;BME280;4328;48.622;9.230;2022-08-25T07:43:58;97976.97;;;27.96;53.57
8581;BME280;4328;48.622;9.230;2022-08-25T07:46:25;97983.38;;;28.11;52.99
8581;BME280;4328;48.622;9.230;2022-08-25T07:48:52;97976.25;;;28.23;52.85
8581;BME280;4328;48.622;9.230;2022-08-25T07:51:19;97982.50;;;28.48;53.06
8581;BME280;4328;48.622;9.230;2022-08-25T07:53:47;97976.19;;;28.88;52.46
8581;BME280;4328;48.622;9.230;2022-08-25T07:56:14;97977.78;;;29.30;51.11
8581;BME280;4328;48.622;9.230;2022-08-25T07:58:42;97978.69;;;29.89;50.40
8581;BME280;4328;48.622;9.230;2022-08-25T08:01:13;97966.06;;;30.90;48.17
8581;BME280;4328;48.622;9.230;2022-08-25T08:03:40;97971.22;;;32.13;45.37
8581;BME280;4328;48.622;9.230;2022-08-25T08:06:08;97935.50;;;33.83;42.76
8581;BME280;4328;48.622;9.230;2022-08-25T08:08:35;97967.50;;;35.99;39.57
8581;BME280;4328;48.622;9.230;2022-08-25T08:11:04;97951.53;;;38.08;36.54
8581;BME280;4328;48.622;9.230;2022-08-25T08:13:31;97954.50;;;39.71;33.88
8581;BME280;4328;48.622;9.230;2022-08-25T08:15:58;97959.81;;;40.66;32.78
8581;BME280;4328;48.622;9.230;2022-08-25T08:18:24;97959.41;;;41.08;32.22
8581;BME280;4328;48.622;9.230;2022-08-25T08:20:51;97950.72;;;41.89;31.08
8581;BME280;4328;48.622;9.230;2022-08-25T08:23:18;97940.16;;;43.30;29.60
8581;BME280;4328;48.622;9.230;2022-08-25T08:25:45;97954.25;;;44.25;28.29
8581;BME280;4328;48.622;9.230;2022-08-25T08:28:14;97948.06;;;44.48;27.96
8581;BME280;4328;48.622;9.230;2022-08-25T08:30:40;97946.53;;;45.47;27.12
8581;BME280;4328;48.622;9.230;2022-08-25T08:33:07;97953.09;;;46.26;26.40
8581;BME280;4328;48.622;9.230;2022-08-25T08:35:33;97936.03;;;46.46;25.86
8581;BME280;4328;48.622;9.230;2022-08-25T08:38:00;97945.78;;;47.33;25.51
8581;BME280;4328;48.622;9.230;2022-08-25T08:40:28;97939.13;;;47.86;24.51
8581;BME280;4328;48.622;9.230;2022-08-25T08:43:02;97929.94;;;48.34;24.45
8581;BME280;4328;48.622;9.230;2022-08-25T08:45:36;97922.19;;;48.87;23.94
8581;BME280;4328;48.622;9.230;2022-08-25T08:48:31;97936.78;;;49.61;23.49
8581;BME280;4328;48.622;9.230;2022-08-25T08:51:09;97929.41;;;50.34;22.69
8581;BME280;4328;48.622;9.230;2022-08-25T08:53:44;97924.72;;;50.78;22.46
8581;BME280;4328;48.622;9.230;2022-08-25T08:56:19;97931.31;;;50.79;22.69
8581;BME280;4328;48.622;9.230;2022-08-25T08:58:51;97926.13;;;51.12;21.79
8581;BME280;4328;48.622;9.230;2022-08-25T09:01:26;97916.09;;;51.04;21.70
8581;BME280;4328;48.622;9.230;2022-08-25T09:03:58;97926.13;;;50.74;22.33
8581;BME280;4328;48.622;9.230;2022-08-25T09:06:31;97926.34;;;50.67;22.30
8581;BME280;4328;48.622;9.230;2022-08-25T09:09:02;97906.97;;;50.80;21.96
8581;BME280;4328;48.622;9.230;2022-08-25T09:11:40;97909.94;;;51.40;21.67
8581;BME280;4328;48.622;9.230;2022-08-25T09:14:22;97908.53;;;51.57;21.67
8581;BME280;4328;48.622;9.230;2022-08-25T09:16:57;97917.34;;;51.75;21.34
8581;BME280;4328;48.622;9.230;2022-08-25T09:19:36;97899.16;;;52.09;21.14
8581;BME280;4328;48.622;9.230;2022-08-25T09:22:25;97905.28;;;51.55;21.35
8581;BME280;4328;48.622;9.230;2022-08-25T09:25:04;97901.38;;;51.36;21.84
8581;BME280;4328;48.622;9.230;2022-08-25T09:27:40;97899.38;;;51.46;21.69
8581;BME280;4328;48.622;9.230;2022-08-25T09:30:11;97903.03;;;51.24;21.45
8581;BME280;4328;48.622;9.230;2022-08-25T09:32:43;97906.16;;;50.79;21.43
8581;BME280;4328;48.622;9.230;2022-08-25T09:35:15;97893.78;;;50.79;21.78
8581;BME280;4328;48.622;9.230;2022-08-25T09:37:55;97905.31;;;49.54;22.59
8581;BME280;4328;48.622;9.230;2022-08-25T09:40:22;97900.16;;;48.80;23.01
8581;BME280;4328;48.622;9.230;2022-08-25T09:42:51;97899.06;;;47.32;24.08
8581;BME280;4328;48.622;9.230;2022-08-25T09:45:31;97897.78;;;46.26;25.11
8581;BME280;4328;48.622;9.230;2022-08-25T09:48:01;97898.09;;;44.67;26.40
8581;BME280;4328;48.622;9.230;2022-08-25T09:50:30;97906.72;;;41.79;28.65
8581;BME280;4328;48.622;9.230;2022-08-25T09:53:11;97863.09;;;39.58;31.18
8581;BME280;4328;48.622;9.230;2022-08-25T09:55:40;97889.84;;;38.82;31.75
8581;BME280;4328;48.622;9.230;2022-08-25T09:58:16;97887.00;;;39.31;32.31
8581;BME280;4328;48.622;9.230;2022-08-25T10:00:43;97878.31;;;37.52;33.25
8581;BME280;4328;48.622;9.230;2022-08-25T10:03:19;97886.13;;;37.08;35.12
8581;BME280;4328;48.622;9.230;2022-08-25T10:05:57;97868.91;;;36.97;34.48
8581;BME280;4328;48.622;9.230;2022-08-25T10:08:30;97889.25;;;36.71;34.84
8581;BME280;4328;48.622;9.230;2022-08-25T10:10:58;97885.56;;;35.96;35.74
8581;BME280;4328;48.622;9.230;2022-08-25T10:13:35;97882.78;;;35.83;36.58
8581;BME280;4328;48.622;9.230;2022-08-25T10:16:07;97884.91;;;35.87;36.80
8581;BME280;4328;48.622;9.230;2022-08-25T10:18:35;97875.81;;;35.41;36.18
8581;BME280;4328;48.622;9.230;2022-08-25T10:21:09;97873.28;;;35.36;37.03
8581;BME280;4328;48.622;9.230;2022-08-25T10:23:39;97868.81;;;35.10;37.89
8581;BME280;4328;48.622;9.230;2022-08-25T10:26:13;97870.09;;;35.13;37.21
8581;BME280;4328;48.622;9.230;2022-08-25T10:28:52;97860.50;;;35.02;37.41
8581;BME280;4328;48.622;9.230;2022-08-25T10:31:29;97849.09;;;34.98;37.76
8581;BME280;4328;48.622;9.230;2022-08-25T10:34:10;97850.75;;;34.87;37.56
8581;BME280;4328;48.622;9.230;2022-08-25T10:36:46;97852.72;;;34.50;38.56
8581;BME280;4328;48.622;9.230;2022-08-25T10:39:27;97858.44;;;34.29;38.81
8581;BME280;4328;48.622;9.230;2022-08-25T10:42:02;97853.28;;;34.31;38.56
8581;BME280;4328;48.622;9.230;2022-08-25T10:44:34;97842.44;;;34.21;38.71
8581;BME280;4328;48.622;9.230;2022-08-25T10:47:41;97841.00;;;34.15;38.79
8581;BME280;4328;48.622;9.230;2022-08-25T10:50:21;97840.97;;;34.36;38.07
8581;BME280;4328;48.622;9.230;2022-08-25T10:53:18;97826.81;;;34.12;38.36
8581;BME280;4328;48.622;9.230;2022-08-25T10:55:57;97826.78;;;33.99;38.86
8581;BME280;4328;48.622;9.230;2022-08-25T10:58:41;97816.94;;;33.93;39.66
8581;BME280;4328;48.622;9.230;2022-08-25T11:01:13;97817.50;;;33.87;39.51
8581;BME280;4328;48.622;9.230;2022-08-25T11:03:46;97803.31;;;33.83;39.70
8581;BME280;4328;48.622;9.230;2022-08-25T11:06:19;97821.22;;;33.79;39.48
8581;BME280;4328;48.622;9.230;2022-08-25T11:08:51;97827.75;;;33.29;39.34
8581;BME280;4328;48.622;9.230;2022-08-25T11:11:23;97815.19;;;33.06;40.71
8581;BME280;4328;48.622;9.230;2022-08-25T11:13:54;97823.69;;;33.18;40.02
8581;BME280;4328;48.622;9.230;2022-08-25T11:16:32;97819.38;;;32.99;40.04
8581;BME280;4328;48.622;9.230;2022-08-25T11:19:06;97819.88;;;32.72;39.39
8581;BME280;4328;48.622;9.230;2022-08-25T11:21:42;97809.47;;;32.64;39.99
8581;BME280;4328;48.622;9.230;2022-08-25T11:24:30;97802.94;;;32.81;40.31
8581;BME280;4328;48.622;9.230;2022-08-25T11:26:59;97803.00;;;33.02;40.77
8581;BME280;4328;48.622;9.230;2022-08-25T11:29:32;97804.34;;;33.25;40.04
8581;BME280;4328;48.622;9.230;2022-08-25T11:32:01;97793.59;;;33.18;40.20
8581;BME280;4328;48.622;9.230;2022-08-25T11:34:31;97800.94;;;33.11;40.10
8581;BME280;4328;48.622;9.230;2022-08-25T11:37:02;97792.25;;;33.04;40.62
8581;BME280;4328;48.622;9.230;2022-08-25T11:39:56;97790.41;;;33.28;39.28
8581;BME280;4328;48.622;9.230;2022-08-25T11:42:33;97793.69;;;33.10;40.02
8581;BME280;4328;48.622;9.230;2022-08-25T11:45:07;97782.97;;;32.82;40.23
8581;BME280;4328;48.622;9.230;2022-08-25T11:48:00;97786.34;;;32.67;40.94
8581;BME280;4328;48.622;9.230;2022-08-25T11:50:33;97788.91;;;32.81;41.05
8581;BME280;4328;48.622;9.230;2022-08-25T11:53:18;97786.63;;;33.04;40.88
8581;BME280;4328;48.622;9.230;2022-08-25T11:55:49;97791.00;;;33.13;40.48
8581;BME280;4328;48.622;9.230;2022-08-25T11:58:28;97788.56;;;32.82;40.35
8581;BME280;4328;48.622;9.230;2022-08-25T12:00:57;97781.59;;;32.59;40.82
8581;BME280;4328;48.622;9.230;2022-08-25T12:03:49;97785.13;;;32.47;41.32
8581;BME280;4328;48.622;9.230;2022-08-25T12:06:21;97782.28;;;32.26;41.63
8581;BME280;4328;48.622;9.230;2022-08-25T12:11:49;97786.38;;;32.29;41.59
8581;BME280;4328;48.622;9.230;2022-08-25T12:14:43;97774.09;;;32.04;40.92
8581;BME280;4328;48.622;9.230;2022-08-25T12:17:25;97774.91;;;32.05;41.23
8581;BME280;4328;48.622;9.230;2022-08-25T12:19:56;97767.25;;;32.22;40.87
8581;BME280;4328;48.622;9.230;2022-08-25T12:22:56;97767.84;;;32.37;41.45
8581;BME280;4328;48.622;9.230;2022-08-25T12:25:45;97769.16;;;32.39;41.19
8581;BME280;4328;48.622;9.230;2022-08-25T12:28:35;97766.19;;;32.44;42.14
8581;BME280;4328;48.622;9.230;2022-08-25T12:31:15;97756.41;;;32.80;41.38
8581;BME280;4328;48.622;9.230;2022-08-25T12:33:56;97760.38;;;32.70;41.56
8581;BME280;4328;48.622;9.230;2022-08-25T12:36:29;97760.81;;;32.31;43.27
8581;BME280;4328;48.622;9.230;2022-08-25T12:39:13;97762.09;;;31.95;43.98
8581;BME280;4328;48.622;9.230;2022-08-25T12:41:54;97766.09;;;31.77;44.24
8581;BME280;4328;48.622;9.230;2022-08-25T12:44:35;97759.44;;;31.90;43.23
8581;BME280;4328;48.622;9.230;2022-08-25T12:47:24;97762.75;;;31.92;43.32
8581;BME280;4328;48.622;9.230;2022-08-25T12:49:51;97766.28;;;31.54;43.12
8581;BME280;4328;48.622;9.230;2022-08-25T12:52:20;97760.19;;;31.44;44.43
8581;BME280;4328;48.622;9.230;2022-08-25T12:54:52;97752.81;;;31.22;43.50
8581;BME280;4328;48.622;9.230;2022-08-25T12:57:44;97755.13;;;31.20;42.92
8581;BME280;4328;48.622;9.230;2022-08-25T13:00:15;97755.13;;;31.20;43.88
8581;BME280;4328;48.622;9.230;2022-08-25T13:03:09;97752.44;;;31.41;43.65
8581;BME280;4328;48.622;9.230;2022-08-25T13:05:51;97758.06;;;31.49;44.31
8581;BME280;4328;48.622;9.230;2022-08-25T13:08:46;97761.00;;;31.62;44.23
8581;BME280;4328;48.622;9.230;2022-08-25T13:11:22;97756.75;;;31.38;44.17
8581;BME280;4328;48.622;9.230;2022-08-25T13:13:56;97752.97;;;31.34;43.56
8581;BME280;4328;48.622;9.230;2022-08-25T13:16:28;97752.81;;;31.22;43.92
8581;BME280;4328;48.622;9.230;2022-08-25T13:18:56;97748.53;;;31.25;44.18
8581;BME280;4328;48.622;9.230;2022-08-25T13:21:27;97724.81;;;31.22;43.83
8581;BME280;4328;48.622;9.230;2022-08-25T13:23:57;97740.41;;;31.40;42.62
8581;BME280;4328;48.622;9.230;2022-08-25T13:26:27;97734.34;;;31.38;43.36
8581;BME280;4328;48.622;9.230;2022-08-25T13:28:58;97719.84;;;31.36;42.35
8581;BME280;4328;48.622;9.230;2022-08-25T13:31:26;97731.22;;;31.31;42.80
8581;BME280;4328;48.622;9.230;2022-08-25T13:33:56;97720.63;;;31.45;42.92
8581;BME280;4328;48.622;9.230;2022-08-25T13:36:24;97716.03;;;31.41;43.04
8581;BME280;4328;48.622;9.230;2022-08-25T13:39:13;97722.06;;;31.77;41.39
8581;BME280;4328;48.622;9.230;2022-08-25T13:41:46;97671.31;;;31.53;41.10
8581;BME280;4328;48.622;9.230;2022-08-25T13:44:16;97722.75;;;31.66;40.61
8581;BME280;4328;48.622;9.230;2022-08-25T13:46:44;97713.34;;;31.53;41.08